Time;durP1;ratioP1;P1;durP2;ratioP2;P2;SDS_P1;SDS_P2;PMS_P1;PMS_P2;Temp;Humidity;BMP_temperature;BMP_pressure;BME280_temperature;BME280_humidity;BME280_pressure;Samples;Min_cycle;Max_cycle;Signal;HPM_P1;HPM_P2
2022/09/20 00:01:48;;;;;;;2.83;1.40;;;12.70;77.20;;;;;;5043717;28;20032;-65
2022/09/20 00:04:14;;;;;;;3.03;1.33;;;12.70;77.30;;;;;;5047136;28;20439;-65
2022/09/20 00:06:39;;;;;;;2.55;1.27;;;12.70;77.40;;;;;;5045122;28;20697;-65
2022/09/20 00:09:05;;;;;;;3.92;1.50;;;12.60;77.40;;;;;;5044608;28;20033;-66
2022/09/20 00:11:32;;;;;;;4.45;1.60;;;12.60;77.50;;;;;;5048886;28;20109;-66
2022/09/20 00:13:59;;;;;;;5.07;1.60;;;12.60;77.60;;;;;;5043561;28;20040;-66
2022/09/20 00:16:31;;;;;;;6.30;1.55;;;12.60;77.70;;;;;;5045519;28;20387;-66
2022/09/20 00:18:59;;;;;;;3.55;1.50;;;12.60;77.80;;;;;;5048037;28;20017;-66
2022/09/20 00:21:29;;;;;;;3.28;1.30;;;12.50;78.10;;;;;;5042852;28;20059;-65
2022/09/20 00:23:56;;;;;;;5.63;1.40;;;12.50;78.30;;;;;;5045921;28;20017;-65
2022/09/20 00:26:22;;;;;;;4.40;1.50;;;12.50;78.40;;;;;;5046961;28;20082;-65
2022/09/20 00:28:47;;;;;;;4.03;1.30;;;12.50;78.50;;;;;;5046991;28;20025;-65
2022/09/20 00:31:14;;;;;;;4.82;1.60;;;12.50;78.60;;;;;;5044267;28;20044;-65
2022/09/20 00:36:24;;;;;;;3.47;1.20;;;12.50;78.70;;;;;;5045697;28;20163;-65
2022/09/20 00:38:57;;;;;;;3.63;1.35;;;12.60;78.70;;;;;;5050319;28;20486;-65
2022/09/20 00:41:24;;;;;;;4.82;1.52;;;12.50;78.70;;;;;;5047035;28;20025;-65
2022/09/20 00:43:49;;;;;;;3.67;1.20;;;12.60;78.70;;;;;;5046968;28;20020;-65
2022/09/20 00:46:42;;;;;;;3.88;1.20;;;12.60;78.70;;;;;;5044676;28;20030;-65
2022/09/20 00:49:21;;;;;;;3.08;1.20;;;12.60;78.70;;;;;;5047315;28;20025;-65
2022/09/20 00:51:51;;;;;;;4.60;1.30;;;12.60;78.70;;;;;;5041764;28;20061;-66
2022/09/20 00:54:18;;;;;;;3.90;1.30;;;12.60;78.80;;;;;;5047460;28;20586;-65
2022/09/20 00:56:45;;;;;;;2.83;1.13;;;12.60;78.80;;;;;;5046923;28;20167;-66
2022/09/20 00:59:21;;;;;;;4.05;1.10;;;12.60;78.80;;;;;;5046972;28;20032;-65
2022/09/20 01:01:51;;;;;;;4.43;1.30;;;12.60;78.80;;;;;;5041371;28;20500;-65
2022/09/20 01:04:21;;;;;;;2.88;1.17;;;12.60;78.90;;;;;;5048193;28;20491;-65
2022/09/20 01:06:50;;;;;;;2.95;1.20;;;12.60;78.80;;;;;;5048758;28;20029;-65
2022/09/20 01:09:16;;;;;;;3.22;1.10;;;12.70;78.80;;;;;;5050624;28;20029;-65
2022/09/20 01:11:41;;;;;;;2.28;1.10;;;12.70;78.60;;;;;;5050652;28;20047;-66
2022/09/20 01:14:08;;;;;;;2.65;1.20;;;12.70;78.60;;;;;;5047584;28;20550;-66
2022/09/20 01:16:35;;;;;;;2.75;1.10;;;12.80;78.50;;;;;;5051241;28;20029;-66
2022/09/20 01:19:14;;;;;;;2.15;1.00;;;12.80;78.40;;;;;;5043739;28;20112;-65
2022/09/20 01:21:40;;;;;;;2.72;1.00;;;12.90;78.40;;;;;;5042537;28;20399;-66
2022/09/20 01:24:21;;;;;;;2.45;1.10;;;12.90;78.30;;;;;;5040171;28;20014;-66
2022/09/20 01:26:58;;;;;;;2.58;1.08;;;12.90;78.30;;;;;;5045123;28;20115;-65
2022/09/20 01:29:46;;;;;;;3.63;1.20;;;12.90;78.20;;;;;;5041812;28;20029;-65
2022/09/20 01:32:16;;;;;;;3.53;1.00;;;12.90;78.10;;;;;;5046328;28;20033;-65
2022/09/20 01:34:55;;;;;;;6.05;1.55;;;12.90;78.10;;;;;;5040075;28;20523;-66
2022/09/20 01:37:37;;;;;;;2.90;1.00;;;12.90;78.00;;;;;;5047012;28;20029;-66
2022/09/20 01:40:29;;;;;;;4.00;1.20;;;12.90;78.00;;;;;;5044692;28;20021;-66
2022/09/20 01:43:06;;;;;;;2.60;1.10;;;12.90;78.10;;;;;;5045844;28;20054;-66
2022/09/20 01:45:32;;;;;;;4.03;1.25;;;12.90;78.00;;;;;;5043047;28;20021;-65
2022/09/20 01:48:12;;;;;;;3.55;1.30;;;12.90;78.00;;;;;;5040373;28;20484;-66
2022/09/20 01:51:05;;;;;;;4.68;1.40;;;13.00;78.10;;;;;;5045502;28;20036;-65
2022/09/20 01:53:52;;;;;;;2.60;1.02;;;12.90;77.90;;;;;;5043887;28;20037;-64
2022/09/20 01:56:36;;;;;;;2.50;1.00;;;13.00;77.90;;;;;;5044918;28;20510;-65
2022/09/20 01:59:05;;;;;;;3.83;1.00;;;12.90;77.90;;;;;;5041097;28;20022;-65
2022/09/20 02:01:39;;;;;;;2.83;1.10;;;12.90;78.00;;;;;;5045157;28;20047;-65
2022/09/20 02:04:34;;;;;;;3.90;1.20;;;12.90;78.00;;;;;;5042571;28;20025;-66
2022/09/20 02:07:21;;;;;;;3.17;1.23;;;12.90;77.90;;;;;;5037625;28;20075;-65
2022/09/20 02:10:06;;;;;;;2.35;1.00;;;12.90;77.80;;;;;;5048092;28;20100;-65
2022/09/20 02:13:01;;;;;;;2.35;0.93;;;13.00;77.80;;;;;;5045483;28;20013;-65
2022/09/20 02:15:46;;;;;;;3.60;0.93;;;13.00;77.70;;;;;;5040441;28;20032;-65
2022/09/20 02:18:23;;;;;;;2.33;1.08;;;13.00;77.70;;;;;;5051270;28;20108;-66
2022/09/20 02:21:02;;;;;;;3.42;1.10;;;13.00;77.70;;;;;;5049605;28;20078;-65
2022/09/20 02:23:52;;;;;;;2.35;0.88;;;13.00;77.60;;;;;;5046587;28;20054;-65
2022/09/20 02:26:48;;;;;;;1.63;1.00;;;13.00;77.50;;;;;;5039771;28;20721;-65
2022/09/20 02:29:28;;;;;;;2.50;1.10;;;13.00;77.50;;;;;;5045529;28;20053;-65
2022/09/20 02:32:13;;;;;;;3.38;1.10;;;13.00;77.40;;;;;;5047994;28;20029;-65
2022/09/20 02:34:42;;;;;;;4.18;1.40;;;13.00;77.40;;;;;;5036148;28;20384;-65
2022/09/20 02:37:39;;;;;;;3.60;1.10;;;13.00;77.40;;;;;;5039546;28;20048;-65
2022/09/20 02:40:42;;;;;;;4.13;1.20;;;13.00;77.50;;;;;;5042958;28;20107;-65
2022/09/20 02:43:37;;;;;;;3.95;1.10;;;13.00;77.50;;;;;;5042566;28;20024;-65
2022/09/20 02:46:28;;;;;;;4.05;1.25;;;13.00;77.60;;;;;;5042182;28;20025;-64
2022/09/20 02:49:18;;;;;;;4.88;1.20;;;13.00;77.50;;;;;;5047115;28;20479;-64
2022/09/20 02:51:51;;;;;;;1.90;0.90;;;13.00;77.50;;;;;;5045869;28;20040;-65
2022/09/20 02:54:32;;;;;;;3.95;1.20;;;13.00;77.50;;;;;;5048700;28;20032;-64
2022/09/20 02:57:41;;;;;;;3.88;1.23;;;13.00;77.50;;;;;;5049776;28;20553;-64
2022/09/20 03:00:17;;;;;;;3.65;1.38;;;13.00;77.60;;;;;;5043586;28;20464;-64
2022/09/20 03:03:00;;;;;;;3.67;1.10;;;13.00;77.60;;;;;;5046654;28;20033;-65
2022/09/20 03:05:57;;;;;;;3.72;1.17;;;13.00;77.70;;;;;;5047559;28;20029;-64
2022/09/20 03:08:52;;;;;;;3.55;1.00;;;13.00;77.70;;;;;;5043007;28;20029;-64
2022/09/20 03:11:26;;;;;;;3.03;1.00;;;13.00;77.70;;;;;;5041972;28;20024;-64
2022/09/20 03:14:17;;;;;;;2.45;1.00;;;13.00;77.70;;;;;;5043300;28;20051;-64
2022/09/20 03:17:09;;;;;;;3.65;1.10;;;13.00;77.70;;;;;;5050518;28;20071;-64
2022/09/20 03:19:50;;;;;;;2.92;1.27;;;13.00;77.60;;;;;;5038862;28;20030;-65
2022/09/20 03:22:50;;;;;;;3.22;1.58;;;13.00;77.50;;;;;;5042924;28;20028;-65
2022/09/20 03:25:47;;;;;;;1.98;1.10;;;13.00;77.50;;;;;;5037546;28;20029;-66
2022/09/20 03:28:54;;;;;;;2.63;1.20;;;13.00;77.60;;;;;;5041485;28;20102;-66
2022/09/20 03:31:46;;;;;;;2.75;1.10;;;12.90;77.60;;;;;;5040094;28;20032;-65
2022/09/20 03:34:17;;;;;;;4.18;1.98;;;12.90;77.60;;;;;;5047299;28;20040;-64
2022/09/20 03:37:14;;;;;;;4.25;1.77;;;12.90;77.70;;;;;;5045248;28;20083;-64
2022/09/20 03:40:02;;;;;;;4.30;1.30;;;12.80;77.80;;;;;;5046791;28;20598;-64
2022/09/20 03:42:28;;;;;;;2.88;1.40;;;12.80;77.90;;;;;;5040952;28;20029;-65
2022/09/20 03:45:21;;;;;;;4.38;1.45;;;12.80;77.90;;;;;;5048165;28;20021;-65
2022/09/20 03:47:46;;;;;;;;;;;12.70;78.10;;;;;;5042529;28;20030;-65
2022/09/20 03:50:40;;;;;;;2.60;1.00;;;12.80;78.10;;;;;;5042402;28;19935;-65
2022/09/20 03:53:27;;;;;;;3.53;1.20;;;12.80;78.30;;;;;;5040773;28;20021;-65
2022/09/20 03:56:23;;;;;;;2.85;1.10;;;12.70;78.40;;;;;;5047577;28;20033;-65
2022/09/20 03:58:57;;;;;;;3.00;1.42;;;12.80;78.40;;;;;;5042821;28;20028;-65
2022/09/20 04:01:53;;;;;;;3.35;1.30;;;12.70;78.60;;;;;;5044707;28;20108;-65
2022/09/20 04:04:51;;;;;;;3.13;1.00;;;12.70;78.50;;;;;;5041985;28;20029;-64
2022/09/20 04:07:23;;;;;;;2.22;1.23;;;12.70;78.50;;;;;;5047176;28;20112;-65
2022/09/20 04:09:58;;;;;;;2.88;1.20;;;12.70;78.60;;;;;;5048922;28;20086;-66
2022/09/20 04:12:40;;;;;;;2.42;1.10;;;12.70;78.70;;;;;;5042286;28;20044;-66
2022/09/20 04:15:11;;;;;;;3.50;1.60;;;12.70;78.90;;;;;;5041436;28;20068;-65
2022/09/20 04:17:55;;;;;;;3.13;1.48;;;12.70;78.90;;;;;;5033151;28;20036;-66
2022/09/20 04:21:03;;;;;;;3.42;1.17;;;12.70;78.90;;;;;;5044361;28;20029;-65
2022/09/20 04:24:07;;;;;;;4.30;1.58;;;12.60;79.00;;;;;;5002010;28;20067;-65
2022/09/20 04:26:43;;;;;;;3.22;1.25;;;12.60;79.30;;;;;;5002041;28;20125;-65
2022/09/20 04:29:28;;;;;;;1.63;1.10;;;12.60;79.40;;;;;;5034475;28;20216;-65
2022/09/20 04:32:16;;;;;;;3.92;1.50;;;12.60;79.50;;;;;;5049025;28;20026;-65
2022/09/20 04:37:37;;;;;;;2.75;1.30;;;12.50;79.60;;;;;;5046139;28;20083;-67
2022/09/20 04:40:46;;;;;;;5.50;1.60;;;12.50;79.70;;;;;;5045868;28;20510;-64
2022/09/20 04:43:52;;;;;;;3.63;1.40;;;12.40;79.90;;;;;;5034723;28;20033;-65
2022/09/20 04:46:55;;;;;;;1.92;1.10;;;12.40;80.00;;;;;;5038526;28;20505;-64
2022/09/20 04:49:48;;;;;;;;;;;12.40;80.00;;;;;;5043936;28;20043;-65
2022/09/20 04:52:33;;;;;;;2.45;1.20;;;12.40;79.90;;;;;;5037060;28;19908;-64
2022/09/20 04:55:20;;;;;;;4.78;1.60;;;12.40;80.00;;;;;;5039436;28;20033;-64
2022/09/20 04:57:53;;;;;;;1.88;1.30;;;12.40;80.20;;;;;;5046793;28;20029;-65
2022/09/20 05:00:23;;;;;;;3.90;1.38;;;12.40;80.10;;;;;;5040084;28;20026;-65
2022/09/20 05:03:04;;;;;;;2.30;1.30;;;12.40;80.10;;;;;;5040805;28;20511;-64
2022/09/20 05:05:48;;;;;;;3.45;1.50;;;12.40;80.10;;;;;;5042003;28;20029;-65
2022/09/20 05:08:29;;;;;;;4.43;1.50;;;12.40;80.00;;;;;;5041758;28;20040;-66
2022/09/20 05:11:16;;;;;;;1.92;1.10;;;12.40;80.10;;;;;;5044050;28;20475;-65
2022/09/20 05:13:56;;;;;;;3.15;1.30;;;12.50;80.10;;;;;;5036724;28;20040;-65
2022/09/20 05:16:49;;;;;;;3.72;1.50;;;12.50;80.20;;;;;;5048852;28;20068;-64
2022/09/20 05:19:29;;;;;;;3.22;1.40;;;12.50;80.20;;;;;;5046341;28;20060;-64
2022/09/20 05:22:17;;;;;;;2.90;1.35;;;12.50;80.10;;;;;;5045290;28;20525;-64
2022/09/20 05:25:08;;;;;;;3.55;1.23;;;12.60;80.10;;;;;;5043469;28;20025;-65
2022/09/20 05:27:53;;;;;;;3.00;1.40;;;12.60;80.00;;;;;;5027798;28;20069;-65
2022/09/20 05:30:23;;;;;;;3.08;1.50;;;12.60;80.00;;;;;;5044640;28;20065;-65
2022/09/20 05:33:19;;;;;;;3.08;1.50;;;12.60;80.10;;;;;;5052502;28;20029;-65
2022/09/20 05:36:09;;;;;;;3.22;1.38;;;12.60;80.10;;;;;;5048028;28;20025;-65
2022/09/20 05:38:50;;;;;;;2.65;1.35;;;12.60;80.00;;;;;;5047136;28;20021;-66
2022/09/20 05:41:47;;;;;;;2.00;1.40;;;12.60;80.00;;;;;;5048877;28;20427;-64
2022/09/20 05:44:18;;;;;;;3.80;1.50;;;12.60;80.00;;;;;;5039992;28;20071;-65
2022/09/20 05:47:22;;;;;;;4.03;1.80;;;12.60;80.00;;;;;;5046009;28;20523;-66
2022/09/20 05:50:08;;;;;;;4.90;2.88;;;12.60;80.10;;;;;;5041769;28;20511;-65
2022/09/20 05:52:50;;;;;;;3.35;1.77;;;12.60;80.00;;;;;;5047193;28;20553;-65
2022/09/20 05:55:37;;;;;;;5.25;2.30;;;12.60;80.10;;;;;;5045995;28;20035;-66
2022/09/20 05:58:06;;;;;;;2.97;1.75;;;12.60;80.20;;;;;;5035665;28;20112;-66
2022/09/20 06:00:44;;;;;;;3.67;1.67;;;12.50;80.10;;;;;;5048520;28;20109;-65
2022/09/20 06:03:35;;;;;;;3.53;1.92;;;12.50;80.20;;;;;;5037648;28;20025;-65
2022/09/20 06:06:11;;;;;;;3.00;1.50;;;12.60;80.10;;;;;;5051921;28;20025;-65
2022/09/20 06:09:01;;;;;;;4.45;1.58;;;12.60;80.00;;;;;;5051797;28;20031;-65
2022/09/20 06:11:39;;;;;;;2.95;1.50;;;12.60;79.90;;;;;;5052169;28;20036;-65
2022/09/20 06:14:47;;;;;;;5.55;1.45;;;12.70;80.00;;;;;;5052991;28;20029;-66
2022/09/20 06:17:23;;;;;;;2.92;1.33;;;12.80;80.50;;;;;;5035674;28;20052;-66
2022/09/20 06:20:22;;;;;;;3.45;1.42;;;12.90;79.60;;;;;;5051914;28;20052;-66
2022/09/20 06:22:53;;;;;;;3.15;1.50;;;12.90;79.40;;;;;;5032671;28;20490;-66
2022/09/20 06:25:31;;;;;;;2.53;1.33;;;12.90;79.20;;;;;;5032814;28;20029;-66
2022/09/20 06:28:05;;;;;;;5.32;1.40;;;13.00;79.10;;;;;;5051588;28;20044;-66
2022/09/20 06:30:42;;;;;;;3.75;1.40;;;13.10;78.90;;;;;;5051552;28;20060;-66
2022/09/20 06:33:19;;;;;;;3.17;1.30;;;13.20;78.70;;;;;;5051793;28;20444;-66
2022/09/20 06:35:53;;;;;;;1.63;1.20;;;13.30;78.50;;;;;;5051489;28;20508;-65
2022/09/20 06:41:29;;;;;;;3.10;1.45;;;13.40;78.10;;;;;;5051738;28;20506;-66
2022/09/20 06:44:02;;;;;;;4.13;1.67;;;13.40;78.00;;;;;;5051441;28;20060;-66
2022/09/20 06:46:31;;;;;;;4.10;1.40;;;13.40;78.00;;;;;;5049299;28;20027;-66
2022/09/20 06:48:57;;;;;;;4.15;1.50;;;13.40;77.90;;;;;;5042980;28;20024;-66
2022/09/20 06:51:25;;;;;;;2.25;1.30;;;13.40;77.90;;;;;;5049818;28;20020;-66
2022/09/20 06:53:52;;;;;;;3.67;1.60;;;13.40;77.80;;;;;;5041774;28;20040;-64
2022/09/20 06:56:22;;;;;;;2.60;1.30;;;13.40;77.80;;;;;;5040446;28;20025;-64
2022/09/20 06:58:47;;;;;;;4.22;1.55;;;13.50;77.90;;;;;;5044918;28;20029;-64
2022/09/20 07:01:14;;;;;;;3.10;1.50;;;13.50;77.90;;;;;;5033043;28;20040;-64
2022/09/20 07:03:40;;;;;;;5.43;2.80;;;13.50;77.90;;;;;;5032231;28;20072;-64
2022/09/20 07:06:08;;;;;;;11.23;5.30;;;13.50;77.80;;;;;;5035045;28;20079;-64
2022/09/20 07:08:34;;;;;;;24.88;13.95;;;13.50;77.70;;;;;;5031964;28;20112;-65
2022/09/20 07:11:05;;;;;;;9.77;5.90;;;13.40;77.90;;;;;;5029711;28;20025;-65
2022/09/20 07:13:30;;;;;;;7.20;3.25;;;13.20;78.20;;;;;;5037184;28;20379;-65
2022/09/20 07:16:04;;;;;;;4.75;2.42;;;13.10;78.60;;;;;;5046600;28;20021;-65
2022/09/20 07:18:30;;;;;;;3.38;2.20;;;13.00;78.90;;;;;;5035202;28;20108;-65
2022/09/20 07:20:57;;;;;;;3.63;2.00;;;12.90;79.10;;;;;;5050002;28;20551;-65
2022/09/20 07:23:24;;;;;;;3.50;1.30;;;13.00;79.10;;;;;;5039470;28;20021;-64
2022/09/20 07:25:50;;;;;;;3.13;1.67;;;13.00;79.10;;;;;;5039901;28;20043;-65
2022/09/20 07:28:18;;;;;;;4.72;1.40;;;13.00;79.20;;;;;;5040056;28;20108;-65
2022/09/20 07:30:44;;;;;;;3.38;1.45;;;13.10;79.10;;;;;;5038634;28;20486;-65
2022/09/20 07:33:10;;;;;;;1.98;1.17;;;13.20;79.00;;;;;;5045701;28;20021;-64
2022/09/20 07:35:36;;;;;;;3.10;1.30;;;13.30;79.00;;;;;;5046870;28;20071;-64
2022/09/20 07:38:02;;;;;;;3.33;1.58;;;13.30;78.90;;;;;;5047959;28;20056;-64
2022/09/20 07:40:27;;;;;;;5.13;1.50;;;13.40;78.90;;;;;;5048638;28;20028;-65
2022/09/20 07:42:56;;;;;;;1.88;1.15;;;13.50;78.60;;;;;;5040261;28;20025;-65
2022/09/20 07:45:22;;;;;;;2.33;1.27;;;13.70;78.50;;;;;;5047673;28;20040;-64
2022/09/20 07:47:48;;;;;;;2.85;1.30;;;13.80;78.30;;;;;;5047473;28;20021;-66
2022/09/20 07:50:13;;;;;;;3.42;1.30;;;13.90;78.10;;;;;;5042603;28;20488;-65
2022/09/20 07:52:39;;;;;;;1.38;1.05;;;14.00;77.90;;;;;;5043340;28;20026;-65
2022/09/20 07:55:05;;;;;;;1.23;0.95;;;14.10;77.70;;;;;;5049839;28;20033;-66
2022/09/20 07:57:36;;;;;;;2.53;1.13;;;14.30;77.60;;;;;;5044877;28;20492;-66
2022/09/20 08:00:04;;;;;;;2.47;1.17;;;14.30;77.30;;;;;;5043602;28;20024;-65
2022/09/20 08:02:30;;;;;;;2.55;1.20;;;14.40;77.20;;;;;;5049962;28;20025;-65
2022/09/20 08:04:55;;;;;;;3.15;1.65;;;14.40;77.10;;;;;;5049869;28;20095;-65
2022/09/20 08:07:21;;;;;;;1.73;1.30;;;14.40;77.10;;;;;;5050032;28;20021;-65
2022/09/20 08:09:47;;;;;;;12.23;7.97;;;14.40;77.90;;;;;;5049801;28;20021;-65
2022/09/20 08:12:13;;;;;;;9.85;5.50;;;14.40;77.40;;;;;;5049986;28;20075;-65
2022/09/20 08:14:38;;;;;;;8.07;4.80;;;14.40;77.60;;;;;;5049984;28;20040;-65
2022/09/20 08:17:04;;;;;;;4.57;2.95;;;14.40;77.70;;;;;;5029999;28;20017;-65
2022/09/20 08:19:29;;;;;;;6.32;2.67;;;14.40;78.00;;;;;;5029811;28;20392;-65
2022/09/20 08:21:55;;;;;;;5.03;2.65;;;14.40;78.10;;;;;;5035764;28;20025;-65
2022/09/20 08:24:21;;;;;;;3.67;1.77;;;14.50;78.10;;;;;;5031730;28;20029;-65
2022/09/20 08:26:49;;;;;;;4.18;1.80;;;14.60;78.00;;;;;;5044687;28;20181;-65
2022/09/20 08:29:15;;;;;;;2.55;1.60;;;14.70;77.60;;;;;;5044364;28;20035;-65
2022/09/20 08:31:41;;;;;;;2.55;1.13;;;14.80;77.40;;;;;;5037658;28;20025;-65
2022/09/20 08:34:08;;;;;;;3.63;1.60;;;14.80;77.60;;;;;;5029664;28;20072;-65
2022/09/20 08:36:39;;;;;;;2.50;1.30;;;14.80;77.60;;;;;;5046985;28;20512;-65
2022/09/20 08:39:05;;;;;;;3.35;1.40;;;15.00;77.60;;;;;;5036984;28;20064;-64
2022/09/20 08:41:38;;;;;;;3.47;1.48;;;15.10;77.50;;;;;;5034919;28;20036;-65
2022/09/20 08:44:10;;;;;;;5.22;1.73;;;15.30;77.40;;;;;;5045507;28;20040;-64
2022/09/20 08:46:40;;;;;;;3.70;1.50;;;15.40;77.10;;;;;;5046039;28;20043;-65
2022/09/20 08:49:07;;;;;;;5.75;2.45;;;15.50;76.50;;;;;;5049679;28;20518;-64
2022/09/20 08:51:36;;;;;;;6.38;2.72;;;15.50;76.20;;;;;;5052507;28;20108;-65
2022/09/20 08:54:03;;;;;;;5.78;2.50;;;15.50;76.00;;;;;;5052478;28;20024;-65
2022/09/20 08:56:35;;;;;;;2.97;1.95;;;15.60;75.70;;;;;;5048696;28;20090;-64
2022/09/20 08:59:01;;;;;;;2.97;1.45;;;15.70;75.70;;;;;;5047806;28;20021;-65
2022/09/20 09:01:28;;;;;;;3.75;1.27;;;15.70;75.40;;;;;;5047286;28;20028;-66
2022/09/20 09:04:13;;;;;;;3.85;1.05;;;15.80;75.40;;;;;;5049052;28;20016;-65
2022/09/20 09:06:40;;;;;;;2.35;1.10;;;15.90;75.30;;;;;;5051203;28;20036;-65
2022/09/20 09:09:06;;;;;;;4.60;1.50;;;15.80;74.80;;;;;;5051988;28;20028;-65
2022/09/20 09:11:32;;;;;;;2.15;1.40;;;15.90;74.70;;;;;;5051863;28;20083;-65
2022/09/20 09:14:46;;;;;;;3.35;1.90;;;15.90;74.60;;;;;;5047087;28;20036;-65
2022/09/20 09:16:52;;;;;;;4.20;1.40;;;15.80;74.40;;;;;;5051960;28;20094;-65
2022/09/20 09:19:31;;;;;;;3.55;1.60;;;15.80;74.50;;;;;;5051963;28;20028;-65
2022/09/20 09:22:02;;;;;;;2.28;1.00;;;15.80;74.20;;;;;;5052295;28;20072;-65
2022/09/20 09:24:29;;;;;;;2.50;0.85;;;15.70;74.00;;;;;;5051881;28;20632;-65
2022/09/20 09:27:16;;;;;;;2.25;0.90;;;15.70;74.10;;;;;;5052584;28;20498;-65
2022/09/20 09:29:53;;;;;;;2.10;0.95;;;15.60;74.10;;;;;;5043291;28;20491;-65
2022/09/20 09:32:27;;;;;;;2.55;1.02;;;15.70;74.60;;;;;;5046433;28;20029;-65
2022/09/20 09:34:52;;;;;;;1.85;0.70;;;15.70;74.00;;;;;;5051364;28;20495;-64
2022/09/20 09:37:27;;;;;;;3.67;0.90;;;15.70;73.90;;;;;;5046231;28;20075;-65
2022/09/20 09:40:08;;;;;;;2.25;0.88;;;15.80;73.80;;;;;;5048384;28;20024;-65
2022/09/20 09:42:34;;;;;;;3.45;1.08;;;15.90;73.40;;;;;;5049532;28;20021;-65
2022/09/20 09:45:11;;;;;;;1.60;1.08;;;16.00;73.20;;;;;;5051902;28;20024;-65
2022/09/20 09:47:37;;;;;;;2.13;0.95;;;16.10;73.00;;;;;;5050777;28;20013;-65
2022/09/20 09:50:03;;;;;;;1.92;0.90;;;16.20;72.50;;;;;;5048938;28;20499;-65
2022/09/20 09:52:32;;;;;;;3.35;1.10;;;16.30;72.40;;;;;;5050811;28;20040;-65
2022/09/20 09:54:59;;;;;;;3.00;1.00;;;16.40;71.80;;;;;;5038091;28;20025;-65
2022/09/20 09:57:50;;;;;;;1.60;0.80;;;16.40;71.60;;;;;;5043478;28;20040;-65
2022/09/20 10:00:20;;;;;;;2.40;1.20;;;16.50;71.60;;;;;;5037576;28;20032;-65
2022/09/20 10:02:51;;;;;;;1.95;0.90;;;16.60;71.40;;;;;;5051129;28;20021;-65
2022/09/20 10:05:20;;;;;;;3.00;1.30;;;16.60;71.20;;;;;;5048370;28;20574;-65
2022/09/20 10:07:53;;;;;;;4.72;1.08;;;16.70;70.60;;;;;;5043997;28;20460;-65
2022/09/20 10:11:00;;;;;;;1.40;0.60;;;16.70;70.40;;;;;;5050219;28;20041;-65
2022/09/20 10:13:36;;;;;;;3.13;0.80;;;16.90;70.30;;;;;;5046905;28;20032;-65
2022/09/20 10:16:09;;;;;;;2.47;0.70;;;16.90;69.50;;;;;;5049225;28;20112;-65
2022/09/20 10:18:57;;;;;;;1.52;0.80;;;16.90;69.50;;;;;;5051536;28;20025;-65
2022/09/20 10:21:43;;;;;;;1.95;0.50;;;17.10;68.60;;;;;;5051253;28;20068;-65
2022/09/20 10:24:21;;;;;;;1.83;0.75;;;17.20;68.70;;;;;;5050968;28;20396;-65
2022/09/20 10:26:55;;;;;;;1.70;0.73;;;17.30;68.30;;;;;;5049587;28;20056;-65
2022/09/20 10:29:39;;;;;;;2.08;0.70;;;17.40;68.00;;;;;;5047439;28;20022;-65
2022/09/20 10:32:38;;;;;;;3.20;1.00;;;17.50;67.60;;;;;;5044443;28;20028;-65
2022/09/20 10:35:18;;;;;;;1.88;1.00;;;17.50;66.90;;;;;;5048010;28;20048;-65
2022/09/20 10:38:10;;;;;;;3.15;0.93;;;17.60;66.30;;;;;;5045642;28;20383;-64
2022/09/20 10:44:04;;;;;;;4.07;1.10;;;17.80;64.70;;;;;;5046939;28;20114;-65
2022/09/20 10:46:57;;;;;;;3.08;0.93;;;17.90;64.30;;;;;;5048443;28;20029;-65
2022/09/20 10:49:31;;;;;;;2.80;0.90;;;17.90;63.70;;;;;;5045567;28;20082;-65
2022/09/20 10:52:17;;;;;;;2.75;1.10;;;17.90;63.60;;;;;;5047400;28;20356;-66
2022/09/20 10:55:10;;;;;;;2.17;1.10;;;18.00;63.20;;;;;;5042694;28;20029;-66
2022/09/20 10:58:00;;;;;;;1.67;0.88;;;17.90;61.90;;;;;;5049543;28;20040;-66
2022/09/20 11:00:34;;;;;;;2.65;0.73;;;17.90;61.40;;;;;;5043361;28;20029;-65
2022/09/20 11:03:28;;;;;;;4.45;1.15;;;17.90;60.60;;;;;;5047214;28;20104;-66
2022/09/20 11:06:20;;;;;;;3.33;0.77;;;17.80;59.90;;;;;;5049932;28;20021;-65
2022/09/20 11:08:53;;;;;;;3.25;0.80;;;17.70;59.60;;;;;;5048914;28;20040;-66
2022/09/20 11:11:27;;;;;;;3.55;0.80;;;17.70;59.90;;;;;;5045155;28;20024;-66
2022/09/20 11:13:55;;;;;;;1.55;0.73;;;17.70;60.90;;;;;;5048874;28;20037;-66
2022/09/20 11:16:44;;;;;;;1.60;0.70;;;17.90;60.10;;;;;;5049552;28;20110;-65
2022/09/20 11:19:25;;;;;;;2.30;0.77;;;17.90;59.90;;;;;;5043881;28;20037;-65
2022/09/20 11:22:11;;;;;;;1.77;0.80;;;17.90;59.90;;;;;;5048753;28;20025;-65
2022/09/20 11:24:43;;;;;;;2.78;0.98;;;18.00;59.90;;;;;;5042030;28;20435;-65
2022/09/20 11:27:24;;;;;;;2.25;0.93;;;18.10;59.80;;;;;;5049554;28;20163;-65
2022/09/20 11:29:54;;;;;;;3.22;1.10;;;18.10;59.30;;;;;;5047986;28;20052;-64
2022/09/20 11:32:28;;;;;;;1.45;0.75;;;18.10;59.20;;;;;;5046813;28;20052;-64
2022/09/20 11:35:01;;;;;;;1.80;0.82;;;18.10;59.60;;;;;;5045942;28;20025;-65
2022/09/20 11:37:35;;;;;;;2.72;0.60;;;18.00;59.70;;;;;;5043223;28;20074;-65
2022/09/20 11:40:12;;;;;;;2.90;0.90;;;18.00;60.20;;;;;;5050018;28;20021;-65
2022/09/20 11:42:40;;;;;;;3.33;1.48;;;18.10;60.20;;;;;;5042130;28;20028;-65
2022/09/20 11:45:10;;;;;;;3.33;0.80;;;17.90;60.20;;;;;;5042720;28;20021;-65
2022/09/20 11:47:39;;;;;;;2.50;0.60;;;18.00;60.80;;;;;;5048062;28;20089;-65
2022/09/20 11:50:16;;;;;;;3.40;0.70;;;18.20;60.80;;;;;;5048345;28;20017;-65
2022/09/20 11:53:03;;;;;;;2.63;0.95;;;18.40;60.30;;;;;;5038030;28;20435;-65
2022/09/20 11:55:36;;;;;;;3.45;0.90;;;18.50;59.20;;;;;;5045143;28;20025;-65
2022/09/20 11:58:19;;;;;;;2.70;0.77;;;18.70;57.90;;;;;;5042876;28;20017;-65
2022/09/20 12:00:48;;;;;;;1.95;0.52;;;18.90;58.00;;;;;;5049601;28;20025;-65
2022/09/20 12:03:22;;;;;;;1.15;0.57;;;18.90;57.50;;;;;;5045510;28;20028;-65
2022/09/20 12:05:59;;;;;;;16.83;12.18;;;18.90;57.30;;;;;;5042963;28;20391;-65
2022/09/20 12:08:29;;;;;;;6.30;4.38;;;18.80;57.40;;;;;;5045657;28;20028;-65
2022/09/20 12:11:03;;;;;;;2.80;1.95;;;18.70;57.60;;;;;;5036111;28;20625;-65
2022/09/20 12:13:34;;;;;;;2.47;1.30;;;18.60;57.60;;;;;;5044530;28;20610;-65
2022/09/20 12:16:14;;;;;;;1.80;0.75;;;18.50;57.70;;;;;;5037777;28;20022;-65
2022/09/20 12:19:01;;;;;;;2.05;0.70;;;18.50;58.00;;;;;;5042863;28;20017;-65
2022/09/20 12:21:27;;;;;;;1.33;0.57;;;18.50;57.60;;;;;;5047674;28;20415;-65
2022/09/20 12:23:55;;;;;;;2.65;0.70;;;18.70;57.40;;;;;;5050310;28;20392;-65
2022/09/20 12:26:21;;;;;;;1.60;0.85;;;18.90;56.80;;;;;;5047417;28;20074;-65
2022/09/20 12:28:59;;;;;;;2.78;0.80;;;18.90;56.10;;;;;;5049873;28;20021;-65
2022/09/20 12:31:28;;;;;;;2.90;0.68;;;18.80;55.70;;;;;;5041458;28;20492;-65
2022/09/20 12:34:08;;;;;;;0.80;0.52;;;18.60;56.30;;;;;;5042715;28;20044;-65
2022/09/20 12:36:37;;;;;;;1.58;0.80;;;18.50;56.50;;;;;;5044536;28;20078;-65
2022/09/20 12:39:15;;;;;;;0.85;0.60;;;18.30;57.00;;;;;;5050482;28;20017;-65
2022/09/20 12:41:46;;;;;;;4.00;0.70;;;18.20;57.50;;;;;;5043848;28;20018;-65
2022/09/20 12:44:33;;;;;;;1.95;0.80;;;18.20;57.90;;;;;;5046041;28;20877;-65
2022/09/20 12:47:05;;;;;;;1.75;0.70;;;18.20;58.20;;;;;;5044409;28;20033;-65
2022/09/20 12:52:49;;;;;;;2.35;0.70;;;18.10;58.10;;;;;;5036717;28;20111;-64
2022/09/20 12:55:37;;;;;;;2.70;0.80;;;18.20;58.20;;;;;;5052276;28;20056;-65
2022/09/20 12:58:14;;;;;;;1.80;0.63;;;18.20;58.10;;;;;;5051182;28;20090;-64
2022/09/20 13:00:43;;;;;;;1.08;0.60;;;18.30;57.90;;;;;;5041677;28;20021;-65
2022/09/20 13:03:11;;;;;;;1.95;0.68;;;18.30;57.70;;;;;;5047186;28;20123;-64
2022/09/20 13:05:39;;;;;;;2.05;0.80;;;18.40;57.40;;;;;;5050975;28;20036;-64
2022/09/20 13:08:22;;;;;;;1.70;0.73;;;18.40;57.30;;;;;;5047570;28;20045;-65
2022/09/20 13:11:06;;;;;;;2.60;0.73;;;18.40;57.40;;;;;;5042644;28;20029;-65
2022/09/20 13:14:03;;;;;;;2.00;0.90;;;18.60;57.20;;;;;;5043873;28;20036;-64
2022/09/20 13:16:50;;;;;;;2.30;0.85;;;18.70;56.70;;;;;;5047959;28;20538;-65
2022/09/20 13:19:27;;;;;;;2.15;0.80;;;18.80;56.50;;;;;;5041263;28;20029;-65
2022/09/20 13:22:02;;;;;;;1.58;0.70;;;18.70;56.00;;;;;;5048823;28;20029;-64
2022/09/20 13:24:36;;;;;;;3.03;0.80;;;18.50;56.20;;;;;;5047855;28;20017;-65
2022/09/20 13:27:07;;;;;;;2.55;0.80;;;18.30;56.60;;;;;;5043226;28;20399;-65
2022/09/20 13:29:38;;;;;;;1.60;0.85;;;18.10;57.00;;;;;;5044445;28;20025;-65
2022/09/20 13:32:24;;;;;;;1.27;0.52;;;17.90;57.40;;;;;;5042487;28;20032;-65
2022/09/20 13:35:11;;;;;;;2.13;0.68;;;17.80;58.20;;;;;;5042602;28;20029;-65
2022/09/20 13:37:43;;;;;;;2.03;0.80;;;17.80;58.70;;;;;;5041436;28;20055;-65
2022/09/20 13:40:35;;;;;;;3.42;0.93;;;17.70;59.00;;;;;;5043771;28;20038;-66
2022/09/20 13:43:04;;;;;;;1.65;0.52;;;17.60;59.40;;;;;;5042043;28;20499;-65
2022/09/20 13:45:31;;;;;;;2.22;0.77;;;17.60;59.70;;;;;;5046287;28;20021;-65
2022/09/20 13:48:00;;;;;;;4.25;1.13;;;17.50;60.00;;;;;;5039815;28;20028;-65
2022/09/20 13:50:25;;;;;;;1.75;0.77;;;17.40;60.20;;;;;;5041347;28;20021;-65
2022/09/20 13:52:54;;;;;;;2.05;0.90;;;17.50;60.50;;;;;;5041819;28;20022;-65
2022/09/20 13:55:37;;;;;;;2.30;0.88;;;17.50;60.50;;;;;;5042909;28;20118;-66